Latest Coastal Weather Observations for Tasman Island

IDT60701

Issued at 1:55 pm EST Friday 1 August 2014 (issued every 10 minutes, with the page automatically refreshed every 10 minutes)

About coastal observations | Map of coastal stations | Coastal observations for TAS | Marine services | Other Formats
Station Details ID: 094155 Name: TASMAN ISLAND Lat: -43.24 Lon: 148.00 Height: 240.0 m
Data from the previous 72 hours. | See also: Recent months at Tasman Island
Date/Time
EST
Temp

°C
Wind Pressure Rain
since 9am
mm
Weather Cloud Vis
km
Sea
Height
m
Swell
Dir
 
Speed
knots
Gust
knots
hPa Trend Height
m
Period
s
Dir
01/01:30pm 5.7 SSW 22 33 995.9 - 6.6 - - - - - - -
01/01:22pm 5.7 S 18 29 995.7 - 6.6 - - - - - - -
01/01:21pm 6.1 S 19 29 995.7 - 6.6 - - - - - - -
01/01:00pm 6.1 SSW 30 43 995.2 - 6.6 - - - - - - -
01/12:54pm 5.9 SSW 30 40 995.0 - 6.6 - - - - - - -
01/12:48pm 5.9 SSW 32 39 994.6 - 6.6 - - - - - - -
01/12:30pm 5.3 SSW 20 33 994.5 - 6.4 - - - - - - -
01/12:13pm 5.1 S 22 33 994.4 - 6.0 - - - - - - -
01/12:11pm 5.2 S 25 33 994.2 - 6.0 - - - - - - -
01/12:00pm 5.2 SW 17 37 994.1 - 5.8 Rain - - - - - -
01/11:54am 5.2 SW 21 32 993.7 - 5.6 - - - - - - -
01/11:47am 5.4 SW 32 46 993.1 - 5.6 - - - - - - -
01/11:44am 5.8 SW 15 41 993.0 - 5.6 - - - - - - -
01/11:30am 6.9 SW 13 28 992.9 - 5.6 - - - - - - -
01/11:00am 6.3 SSW 18 29 992.8 - 5.6 - - - - - - -
01/10:30am 4.6 SSW 20 36 992.3 - 5.6 - - - - - - -
01/10:18am 4.5 SSW 15 29 992.0 - 5.2 - - - - - - -
01/10:00am 3.7 N 8 19 991.9 - 4.4 - - - - - - -
01/09:30am 3.9 NW 7 24 990.9 - 2.0 - - - - - - -
01/09:09am 4.7 WSW 15 29 990.3 - 0.6 - - - - - - -
01/09:00am 4.6 W 6 20 990.3 - 18.6 Rain - - - - - -
01/08:52am 4.7 W 4 12 989.8 - 18.2 - - - - - - -
01/08:30am 5.3 WNW 28 40 988.7 - 18.2 - - - - - - -
01/08:00am 4.8 WNW 28 43 987.4 - 18.2 - - - - - - -
01/07:30am 4.7 NW 33 47 986.2 - 18.2 - - - - - - -
01/07:00am 4.3 NW 32 44 986.3 - 18.2 - - - - - - -
01/06:30am 4.4 NW 34 45 985.4 - 18.2 - - - - - - -
01/06:00am 4.2 NW 31 45 985.8 - 18.2 - - - - - - -
01/05:30am 4.1 NW 24 38 985.8 - 18.2 - - - - - - -
01/05:00am 4.3 NW 24 39 986.2 - 18.2 - - - - - - -
01/04:30am 4.7 NW 29 46 985.6 - 18.2 - - - - - - -
01/04:00am 4.7 NW 30 48 985.4 - 18.2 - - - - - - -
01/03:30am 4.6 NW 27 40 985.0 - 18.2 - - - - - - -
01/03:00am 4.7 WNW 28 43 984.9 - 18.2 - - - - - - -
01/02:30am 4.8 NW 32 48 983.8 - 18.2 - - - - - - -
01/02:00am 4.3 WNW 30 42 984.4 - 18.2 - - - - - - -
01/01:30am 4.3 WNW 31 47 983.6 - 18.2 - - - - - - -
01/01:00am 4.6 WNW 33 47 983.3 - 18.2 - - - - - - -
01/12:30am 4.2 NW 28 42 983.4 - 18.2 - - - - - - -
01/12:00am 3.9 NW 29 45 983.2 - 18.2 Recent precip. - - - - - -
 
Date/Time
EST
Temp

°C
Wind Pressure Rain
since 9am
mm
Weather Cloud Vis
km
Sea
Height
m
Swell
Dir
 
Speed
knots
Gust
knots
hPa Trend Height
m
Period
s
Dir
31/11:30pm 4.0 NW 28 43 982.7 - 18.2 - - - - - - -
31/11:07pm 5.1 NW 37 47 982.9 - 18.0 - - - - - - -
31/11:00pm 4.7 NW 26 38 983.0 - 18.0 - - - - - - -
31/10:30pm 4.5 NW 27 38 982.2 - 18.0 - - - - - - -
31/10:25pm 4.7 NW 27 38 981.8 - 18.0 - - - - - - -
31/10:00pm 4.3 NW 39 55 981.1 - 18.0 - - - - - - -
31/09:46pm 4.4 NW 44 57 981.0 - 18.0 - - - - - - -
31/09:45pm 4.4 NW 33 57 981.0 - 18.0 - - - - - - -
31/09:30pm 3.9 NW 30 47 981.5 - 18.0 - - - - - - -
31/09:00pm 5.1 NW 30 42 981.3 - 17.8 - - - - - - -
31/08:30pm 5.7 NW 33 48 980.4 - 17.8 - - - - - - -
31/08:00pm 5.5 NW 26 39 980.6 - 17.8 - - - - - - -
31/07:30pm 5.9 NW 26 42 980.7 - 17.8 - - - - - - -
31/07:22pm 6.2 NW 32 42 980.3 - 17.8 - - - - - - -
31/07:13pm 6.5 NW 22 39 980.4 - 17.8 - - - - - - -
31/07:11pm 6.5 NW 19 28 980.2 - 17.8 - - - - - - -
31/07:00pm 6.7 NW 30 44 980.5 - 17.8 - - - - - - -
31/06:30pm 6.7 NW 31 46 979.9 - 17.8 - - - - - - -
31/06:00pm 6.8 NNW 30 45 979.7 - 17.8 Recent precip. - - - - - -
31/05:30pm 6.0 NNW 25 37 979.4 - 17.8 - - - - - - -
31/05:07pm 5.5 N 15 30 979.1 - 17.6 - - - - - - -
31/05:00pm 5.3 N 12 19 979.9 - 17.6 - - - - - - -
31/04:30pm 4.7 NNW 12 16 980.9 - 17.6 - - - - - - -
31/04:00pm 4.6 NNE 7 10 980.3 - 17.6 - - - - - - -
31/03:30pm 4.8 NNE 2 5 979.7 - 17.6 - - - - - - -
31/03:00pm 4.3 W 4 9 981.4 - 17.6 Recent precip. - - - - - -
31/02:30pm 4.2 WNW 5 12 981.8 - 17.6 - - - - - - -
31/02:00pm 4.0 WSW 6 13 981.6 - 16.8 - - - - - - -
31/01:30pm 4.4 SSW 8 14 981.3 - 14.4 - - - - - - -
31/01:00pm 4.7 W 5 10 982.1 - 11.8 - - - - - - -
31/12:30pm 4.8 WSW 5 9 982.8 - 10.0 - - - - - - -
31/12:00pm 5.3 SW 3 9 983.6 - 7.6 Rain - - - - - -
31/11:30am 5.5 SW 2 6 984.1 - 6.0 - - - - - - -
31/11:00am 5.9 WNW 2 7 985.7 - 4.8 - - - - - - -
31/10:30am 6.2 W 9 15 986.0 - 2.6 - - - - - - -
31/10:00am 6.7 W 6 12 986.5 - 1.0 - - - - - - -
31/09:30am 6.7 WNW 12 19 985.9 - 0.2 - - - - - - -
31/09:00am 6.8 NW 16 25 987.2 - 13.6 Recent precip. - - - - - -
31/08:49am 6.9 WNW 15 25 987.1 - 13.6 - - - - - - -
31/08:30am 6.9 WNW 12 25 987.4 - 13.6 - - - - - - -
31/08:01am 7.6 WNW 22 33 987.8 - 13.0 - - - - - - -
31/08:00am 7.6 WNW 23 32 987.9 - 13.0 - - - - - - -
31/07:46am 7.4 WNW 21 31 987.5 - 13.0 - - - - - - -
31/07:36am 7.0 WNW 25 30 988.1 - 13.0 - - - - - - -
31/07:30am 6.7 WNW 10 18 988.1 - 12.8 - - - - - - -
31/07:00am 6.3 WNW 12 19 988.4 - 12.6 - - - - - - -
31/06:30am 6.3 W 7 13 988.8 - 12.6 - - - - - - -
31/06:00am 6.3 W 8 18 989.4 - 12.0 Rain - - - - - -
31/05:30am 6.5 WSW 9 19 989.6 - 10.4 - - - - - - -
31/05:00am 6.5 SSW 13 25 989.0 - 9.4 - - - - - - -
31/04:30am 6.5 SW 19 33 988.8 - 7.6 - - - - - - -
31/04:08am 7.1 SSW 15 27 988.7 - 6.0 - - - - - - -
31/04:00am 7.2 SSW 12 22 988.9 - 5.2 - - - - - - -
31/03:30am 7.5 SSW 12 21 988.4 - 4.8 - - - - - - -
31/03:00am 8.6 NNW 8 26 989.3 - 4.6 Rain - - - - - -
31/02:30am 9.2 NW 7 23 989.0 - 3.8 - - - - - - -
31/02:00am 11.2 WSW 8 20 988.3 - 2.0 - - - - - - -
31/01:48am 11.4 WSW 8 21 987.8 - 2.0 - - - - - - -
31/01:30am 11.4 NW 29 44 987.6 - 2.0 - - - - - - -
31/01:00am 12.2 NW 29 48 987.4 - 2.0 - - - - - - -
31/12:30am 11.9 NW 35 51 987.0 - 2.0 - - - - - - -
31/12:00am 12.1 NW 32 43 987.4 - 2.0 - - - - - - -
 
Date/Time
EST
Temp

°C
Wind Pressure Rain
since 9am
mm
Weather Cloud Vis
km
Sea
Height
m
Swell
Dir
 
Speed
knots
Gust
knots
hPa Trend Height
m
Period
s
Dir
30/11:30pm 12.2 WNW 29 42 987.5 - 2.0 - - - - - - -
30/11:29pm 12.3 NW 29 40 987.5 - 2.0 - - - - - - -
30/11:00pm 12.4 WNW 42 56 987.3 - 2.0 - - - - - - -
30/10:40pm 12.4 NW 38 54 987.5 - 1.8 - - - - - - -
30/10:30pm 12.2 NW 28 43 987.9 - 1.8 - - - - - - -
30/10:00pm 11.7 NW 28 42 988.8 - 1.8 - - - - - - -
30/09:30pm 11.1 NW 28 41 989.4 - 1.8 - - - - - - -
30/09:00pm 10.7 NW 31 47 989.6 - 1.8 Recent precip. - - - - - -
30/08:55pm 10.5 NW 30 47 989.5 - 1.8 - - - - - - -
30/08:30pm 10.3 NNW 24 35 990.4 - 1.6 - - - - - - -
30/08:00pm 10.3 NW 21 34 991.0 - 1.6 - - - - - - -
30/07:30pm 11.0 WNW 25 39 990.8 - 1.6 - - - - - - -
30/07:17pm 11.1 NW 29 46 991.1 - 1.6 - - - - - - -
30/07:00pm 10.8 NW 22 34 991.8 - 1.6 - - - - - - -
30/06:49pm 10.4 NW 18 31 992.0 - 1.6 - - - - - - -
30/06:30pm 10.1 NW 17 27 992.0 - 1.6 - - - - - - -
30/06:00pm 9.7 NW 18 29 992.7 - 1.4 Rain - - - - - -
30/05:41pm 9.3 NNW 18 23 992.3 - 1.2 - - - - - - -
30/05:30pm 8.6 NNW 6 12 992.5 - 1.2 - - - - - - -
30/05:00pm 9.1 SSW 5 12 993.0 - 1.2 - - - - - - -
30/04:30pm 9.4 WNW 4 13 993.2 - 1.2 - - - - - - -
30/04:00pm 9.7 WNW 9 17 992.9 - 1.0 - - - - - - -
30/03:30pm 9.6 W 7 16 992.2 - 1.0 - - - - - - -
30/03:00pm 9.5 WNW 11 25 993.0 - 1.0 Recent precip. - - - - - -
30/02:30pm 9.7 WNW 15 23 993.1 - 1.0 - - - - - - -
30/02:00pm 8.9 W 6 15 993.6 - 0.6 - - - - - - -
30/01:30pm 8.7 NNW 5 13 993.3 - 0.6 - - - - - - -
30/01:00pm 10.3 WSW 11 26 993.7 - 0.0 - - - - - - -
30/12:30pm 11.4 NW 18 31 993.2 - 0.0 - - - - - - -
30/12:28pm 11.4 NW 20 31 993.3 - 0.0 - - - - - - -
30/12:27pm 11.5 NW 21 31 993.2 - 0.0 - - - - - - -
30/12:00pm 11.7 WNW 32 45 992.9 - 0.0 - - - - - - -
30/11:30am 11.6 WNW 27 41 992.7 - 0.0 - - - - - - -
30/11:00am 11.2 WNW 30 45 993.3 - 0.0 - - - - - - -
30/10:30am 10.6 NW 27 38 993.7 - 0.0 - - - - - - -
30/10:00am 10.1 NW 26 39 994.0 - 0.0 - - - - - - -
30/09:30am 9.7 NW 27 40 993.9 - 0.0 - - - - - - -
30/09:00am 9.0 NW 25 36 994.4 - 6.0 - - - - - - -
30/08:30am 8.7 NW 25 35 994.7 - 6.0 - - - - - - -
30/08:02am 8.2 NW 23 35 994.7 - 6.0 - - - - - - -
30/08:00am 8.2 NW 22 31 995.1 - 6.0 - - - - - - -
30/07:37am 7.8 NW 18 29 994.6 - 6.0 - - - - - - -
30/07:30am 7.6 NW 19 26 994.7 - 6.0 - - - - - - -
30/07:00am 8.3 NW 24 34 994.7 - 6.0 - - - - - - -
30/06:30am 8.5 NW 19 33 994.6 - 6.0 - - - - - - -
30/06:00am 8.5 WNW 18 33 995.1 - 6.0 - - - - - - -
30/05:30am 8.4 WNW 15 34 994.2 - 6.0 - - - - - - -
30/05:26am 8.5 WNW 15 32 994.2 - 6.0 - - - - - - -
30/05:00am 8.3 W 10 26 993.9 - 6.0 - - - - - - -
30/04:30am 7.8 WNW 7 22 994.1 - 6.0 - - - - - - -
30/04:00am 7.5 SSE 6 13 993.7 - 6.0 - - - - - - -
30/03:30am 7.8 W 9 40 992.4 - 6.0 - - - - - - -
30/03:06am 7.7 NW 16 42 991.4 - 6.0 - - - - - - -
30/03:00am 7.5 NW 12 28 991.3 - 6.0 - - - - - - -
30/02:30am 6.8 WNW 8 24 990.7 - 6.0 - - - - - - -
30/02:00am 6.8 WNW 19 36 990.2 - 6.0 - - - - - - -
30/01:30am 5.3 W 15 38 990.0 - 6.0 - - - - - - -
30/01:16am 4.3 WNW 15 54 989.7 - 6.0 - - - - - - -
30/01:12am 6.3 W 15 32 990.6 - 4.6 - - - - - - -
30/01:00am 7.0 WNW 6 19 990.2 - 4.0 - - - - - - -
30/12:30am 6.6 WSW 11 24 989.0 - 4.0 - - - - - - -
30/12:02am 7.3 NW 17 35 988.1 - 4.0 - - - - - - -
30/12:00am 7.4 ENE 10 20 988.5 - 4.0 Recent precip. - - - - - -
 
Date/Time
EST
Temp

°C
Wind Pressure Rain
since 9am
mm
Weather Cloud Vis
km
Sea
Height
m
Swell
Dir
 
Speed
knots
Gust
knots
hPa Trend Height
m
Period
s
Dir
29/11:34pm 6.9 W 15 39 987.0 - 4.0 - - - - - - -
29/11:32pm 6.9 NW 11 33 987.2 - 4.0 - - - - - - -
29/11:30pm 7.3 WSW 23 56 986.7 - 4.0 - - - - - - -
29/11:23pm 7.6 WNW 19 63 986.3 - 3.8 - - - - - - -
29/11:20pm 7.6 NW 19 52 986.0 - 3.8 - - - - - - -
29/11:17pm 8.0 NW 38 58 986.3 - 3.6 - - - - - - -
29/11:13pm 9.9 WNW 16 53 986.0 - 3.6 - - - - - - -
29/11:12pm 10.2 WNW 14 49 986.1 - 3.6 - - - - - - -
29/11:10pm 10.4 W 15 32 986.0 - 3.6 - - - - - - -
29/11:08pm 10.5 NW 30 47 986.5 - 3.6 - - - - - - -
29/11:07pm 10.4 WNW 19 47 986.4 - 3.6 - - - - - - -
29/11:06pm 10.4 WNW 14 30 986.4 - 3.6 - - - - - - -
29/11:04pm 10.4 NW 32 46 986.5 - 3.6 - - - - - - -
29/11:01pm 10.2 WNW 15 40 986.5 - 3.6 - - - - - - -
29/11:00pm 10.2 WNW 11 23 986.7 - 3.6 - - - - - - -
29/10:30pm 10.4 WNW 19 36 985.9 - 3.6 - - - - - - -
29/10:00pm 9.4 WNW 15 31 987.0 - 3.6 - - - - - - -
29/09:30pm 9.2 NW 28 47 985.5 - 3.6 - - - - - - -
29/09:00pm 8.7 WNW 31 55 985.5 - 3.6 - - - - - - -
29/08:55pm 8.6 WNW 33 50 984.9 - 3.6 - - - - - - -
29/08:47pm 8.5 NW 45 60 984.9 - 3.6 - - - - - - -
29/08:30pm 9.7 WNW 30 55 985.1 - 3.6 - - - - - - -
29/08:23pm 9.8 WNW 31 48 984.6 - 3.6 - - - - - - -
29/08:18pm 9.7 NW 42 56 984.6 - 3.6 - - - - - - -
29/08:01pm 9.7 NW 34 44 984.7 - 3.6 - - - - - - -
29/08:00pm 9.8 NW 35 44 984.9 - 3.6 - - - - - - -
29/07:59pm 9.8 NW 35 44 984.7 - 3.6 - - - - - - -
29/07:45pm 9.6 NW 23 46 984.5 - 3.6 - - - - - - -
29/07:37pm 9.6 NW 18 32 984.7 - 3.6 - - - - - - -
29/07:34pm 9.6 NW 31 41 984.9 - 3.6 - - - - - - -
29/07:33pm 9.6 NW 33 41 984.8 - 3.6 - - - - - - -
29/07:30pm 9.7 NW 19 39 985.0 - 3.6 - - - - - - -
29/07:24pm 10.0 NW 22 32 985.0 - 3.6 - - - - - - -
29/07:00pm 9.3 WNW 37 55 984.3 - 3.6 - - - - - - -
29/06:48pm 9.0 WNW 40 51 983.7 - 3.6 - - - - - - -
29/06:45pm 8.4 WNW 29 43 984.0 - 3.6 - - - - - - -
29/06:36pm 8.2 WNW 15 31 984.2 - 3.6 - - - - - - -
29/06:30pm 8.3 WNW 10 29 984.2 - 3.6 - - - - - - -
29/06:00pm 9.5 WNW 15 37 985.6 - 2.2 Rain - - - - - -
29/05:30pm 9.5 NW 27 42 983.7 - 1.4 - - - - - - -
29/05:00pm 10.6 NW 31 44 984.2 - 0.6 - - - - - - -
29/04:30pm 10.6 NNW 31 45 983.5 - 0.6 - - - - - - -
29/04:15pm 10.6 NNW 27 38 983.6 - 0.6 - - - - - - -
29/04:14pm 10.7 NW 26 34 983.5 - 0.6 - - - - - - -
29/04:00pm 11.2 NW 37 55 983.3 - 0.6 - - - - - - -
29/03:30pm 10.8 NW 31 52 984.2 - 0.6 - - - - - - -
29/03:00pm 10.9 NW 27 40 985.4 - 0.6 - - - - - - -
29/02:30pm 10.0 WNW 29 45 985.7 - 0.6 - - - - - - -
29/02:00pm 9.7 WNW 25 39 986.1 - 0.6 - - - - - - -

Other Formats:

Comma delimited format used in spreadsheet applications
http://www.bom.gov.au/fwo/IDT60701/IDT60701.95986.axf

JavaScript Object Notation format (JSON) in row-major order
http://www.bom.gov.au/fwo/IDT60701/IDT60701.95986.json